Rbd Italia — ICQC — position and weather

sailwx.info

Track history (hours):
 
Tides and Currents Weather Stations Pressure Air Temp Water Temp Dewpoint Dewpoint Depression Visibility Wind Speed Wind Dir Waves Ship Positions

Rbd Italia

Last reported at 2017-Apr-10 20:14 UTC. Time now 2017-Apr-27 07:11 UTC.
Position S 28°48' E 032°28'.
Warning: this ship's position is 16 days out of date.

Length 229 m; draft 14.8 m.

Type: Cargo ship. MMSI: 247303200.

Date/timePositionNaut miles runAvg speedWind from/ knotsBaromVisibWave heightAir tempDewpointWater temp
2017-Apr-10 20:14S 28°48' E 032°28'2 7.3
2017-Apr-10 19:58S 28°48' E 032°26'9 6.9
2017-Apr-10 18:36S 28°49' E 032°15'1 9.1
2017-Apr-10 18:30S 28°49' E 032°14'5 9.3
2017-Apr-10 18:00S 28°50' E 032°09'5 9.4
2017-Apr-10 17:30S 28°48' E 032°04'1 2.7
2017-Apr-10 17:00S 28°48' E 032°03'0 0.0
2017-Apr-10 16:30S 28°48' E 032°03'0 0.0
2017-Apr-10 16:00S 28°48' E 032°03'0 0.0
2017-Apr-10 15:30S 28°48' E 032°03'0 0.0
2017-Apr-10 15:00S 28°48' E 032°03'0 0.0
2017-Apr-10 14:00S 28°48' E 032°03'0 0.0
2017-Apr-10 13:30S 28°48' E 032°03'0 0.0
2017-Apr-10 13:00S 28°48' E 032°03'0 0.0
2017-Apr-10 12:30S 28°48' E 032°03'0 0.0
2017-Apr-10 12:00S 28°48' E 032°03'0 0.0
2017-Apr-10 11:30S 28°48' E 032°03'0 0.0
2017-Apr-10 11:00S 28°48' E 032°03'0 0.0
2017-Apr-10 10:30S 28°48' E 032°03'0 0.0
2017-Apr-10 10:00S 28°48' E 032°03'0 0.0
2017-Apr-10 09:30S 28°48' E 032°03'0 0.0
2017-Apr-10 09:00S 28°48' E 032°03'0 0.0
2017-Apr-10 08:30S 28°48' E 032°03'0 0.0
2017-Apr-10 08:00S 28°48' E 032°03'0 0.0
2017-Apr-10 07:30S 28°48' E 032°03'0 0.0
2017-Apr-10 07:00S 28°48' E 032°03'0 0.0
2017-Apr-10 06:30S 28°48' E 032°03'0 0.0
2017-Apr-10 06:00S 28°48' E 032°03'0 0.0
2017-Apr-10 05:30S 28°48' E 032°03'0 0.0
2017-Apr-10 05:00S 28°48' E 032°03'0 0.0
2017-Apr-10 04:30S 28°48' E 032°03'0 0.0
2017-Apr-10 04:00S 28°48' E 032°03'0 0.0
2017-Apr-10 03:30S 28°48' E 032°03'0 0.0
2017-Apr-10 03:00S 28°48' E 032°03'0 0.0
2017-Apr-10 02:30S 28°48' E 032°03'0 0.0
2017-Apr-10 02:00S 28°48' E 032°03'0 0.0
2017-Apr-10 01:30S 28°48' E 032°03'0 0.0
2017-Apr-10 01:00S 28°48' E 032°03'0 0.0
2017-Apr-10 00:30S 28°48' E 032°03'0 0.0
2017-Apr-10 00:00S 28°48' E 032°03'0 0.0
2017-Apr-09 23:30S 28°48' E 032°03'0 0.0
2017-Apr-09 23:00S 28°48' E 032°03'0 0.0
2017-Apr-09 22:30S 28°48' E 032°03'0 0.0
2017-Apr-09 22:00S 28°48' E 032°03'0 0.0
2017-Apr-09 21:30S 28°48' E 032°03'0 0.0
2017-Apr-09 21:00S 28°48' E 032°03'0 0.0
2017-Apr-09 20:30S 28°48' E 032°03'0 0.0
2017-Apr-09 20:00S 28°48' E 032°03'0 0.0
2017-Apr-09 19:30S 28°48' E 032°03'0 0.0
2017-Apr-09 19:00S 28°48' E 032°03'0 0.0
2017-Apr-09 18:30S 28°48' E 032°03'0 0.0
2017-Apr-09 18:00S 28°48' E 032°03'0 0.0
2017-Apr-09 17:30S 28°48' E 032°03'0 0.0
2017-Apr-09 17:00S 28°48' E 032°03'0 0.0
2017-Apr-09 16:30S 28°48' E 032°03'0 0.0
2017-Apr-09 16:00S 28°48' E 032°03'0 0.0
2017-Apr-09 15:30S 28°48' E 032°03'0 0.0
2017-Apr-09 15:00S 28°48' E 032°03'0 0.0
2017-Apr-09 14:00S 28°48' E 032°03'0 0.0
2017-Apr-09 13:30S 28°48' E 032°03'0 0.0
2017-Apr-09 13:00S 28°48' E 032°03'0 0.0
2017-Apr-09 12:30S 28°48' E 032°03'0 0.0
2017-Apr-09 12:00S 28°48' E 032°03'0 0.0
2017-Apr-09 11:30S 28°48' E 032°03'0 0.9
2017-Apr-09 11:00S 28°48' E 032°03'4 7.2
2017-Apr-09 10:30S 28°49' E 032°07'4 7.1
2017-Apr-09 10:00S 28°51' E 032°10'3 7.0
2017-Apr-09 09:30S 28°54' E 032°13'1 2.6
2017-Apr-09 08:57S 28°55' E 032°14'0 0.1
2017-Apr-09 08:30S 28°55' E 032°14'0 0.0
2017-Apr-09 08:00S 28°55' E 032°14'0 0.0
2017-Apr-09 07:18S 28°55' E 032°14'0 0.1
2017-Apr-09 07:00S 28°55' E 032°14'0 0.0
2017-Apr-09 06:27S 28°55' E 032°14'0 0.5
2017-Apr-09 06:00S 28°55' E 032°14'1 2.9
2017-Apr-09 05:31S 28°54' E 032°15'4 8.1
2017-Apr-09 04:58S 28°51' E 032°19'  
Track history (hours):
 
Tides and Currents Weather Stations Pressure Air Temp Water Temp Dewpoint Dewpoint Depression Visibility Wind Speed Wind Dir Waves Ship Positions

Rbd Italia

Last reported at 2017-Apr-10 20:14 UTC. Time now 2017-Apr-27 07:11 UTC.
Position S 28°48' E 032°28'.
Warning: this ship's position is 16 days out of date.

Length 229 m; draft 14.8 m.

Type: Cargo ship. MMSI: 247303200.

Date/timePositionNaut miles runAvg speedWind from/ knotsBaromVisibWave heightAir tempDewpointWater temp
2017-Apr-10 20:14S 28°48' E 032°28'2 7.3
2017-Apr-10 19:58S 28°48' E 032°26'9 6.9
2017-Apr-10 18:36S 28°49' E 032°15'1 9.1
2017-Apr-10 18:30S 28°49' E 032°14'5 9.3
2017-Apr-10 18:00S 28°50' E 032°09'5 9.4
2017-Apr-10 17:30S 28°48' E 032°04'1 2.7
2017-Apr-10 17:00S 28°48' E 032°03'0 0.0
2017-Apr-10 16:30S 28°48' E 032°03'0 0.0
2017-Apr-10 16:00S 28°48' E 032°03'0 0.0
2017-Apr-10 15:30S 28°48' E 032°03'0 0.0
2017-Apr-10 15:00S 28°48' E 032°03'0 0.0
2017-Apr-10 14:00S 28°48' E 032°03'0 0.0
2017-Apr-10 13:30S 28°48' E 032°03'0 0.0
2017-Apr-10 13:00S 28°48' E 032°03'0 0.0
2017-Apr-10 12:30S 28°48' E 032°03'0 0.0
2017-Apr-10 12:00S 28°48' E 032°03'0 0.0
2017-Apr-10 11:30S 28°48' E 032°03'0 0.0
2017-Apr-10 11:00S 28°48' E 032°03'0 0.0
2017-Apr-10 10:30S 28°48' E 032°03'0 0.0
2017-Apr-10 10:00S 28°48' E 032°03'0 0.0
2017-Apr-10 09:30S 28°48' E 032°03'0 0.0
2017-Apr-10 09:00S 28°48' E 032°03'0 0.0
2017-Apr-10 08:30S 28°48' E 032°03'0 0.0
2017-Apr-10 08:00S 28°48' E 032°03'0 0.0
2017-Apr-10 07:30S 28°48' E 032°03'0 0.0
2017-Apr-10 07:00S 28°48' E 032°03'0 0.0
2017-Apr-10 06:30S 28°48' E 032°03'0 0.0
2017-Apr-10 06:00S 28°48' E 032°03'0 0.0
2017-Apr-10 05:30S 28°48' E 032°03'0 0.0
2017-Apr-10 05:00S 28°48' E 032°03'0 0.0
2017-Apr-10 04:30S 28°48' E 032°03'0 0.0
2017-Apr-10 04:00S 28°48' E 032°03'0 0.0
2017-Apr-10 03:30S 28°48' E 032°03'0 0.0
2017-Apr-10 03:00S 28°48' E 032°03'0 0.0
2017-Apr-10 02:30S 28°48' E 032°03'0 0.0
2017-Apr-10 02:00S 28°48' E 032°03'0 0.0
2017-Apr-10 01:30S 28°48' E 032°03'0 0.0
2017-Apr-10 01:00S 28°48' E 032°03'0 0.0
2017-Apr-10 00:30S 28°48' E 032°03'0 0.0
2017-Apr-10 00:00S 28°48' E 032°03'0 0.0
2017-Apr-09 23:30S 28°48' E 032°03'0 0.0
2017-Apr-09 23:00S 28°48' E 032°03'0 0.0
2017-Apr-09 22:30S 28°48' E 032°03'0 0.0
2017-Apr-09 22:00S 28°48' E 032°03'0 0.0
2017-Apr-09 21:30S 28°48' E 032°03'0 0.0
2017-Apr-09 21:00S 28°48' E 032°03'0 0.0
2017-Apr-09 20:30S 28°48' E 032°03'0 0.0
2017-Apr-09 20:00S 28°48' E 032°03'0 0.0
2017-Apr-09 19:30S 28°48' E 032°03'0 0.0
2017-Apr-09 19:00S 28°48' E 032°03'0 0.0
2017-Apr-09 18:30S 28°48' E 032°03'0 0.0
2017-Apr-09 18:00S 28°48' E 032°03'0 0.0
2017-Apr-09 17:30S 28°48' E 032°03'0 0.0
2017-Apr-09 17:00S 28°48' E 032°03'0 0.0
2017-Apr-09 16:30S 28°48' E 032°03'0 0.0
2017-Apr-09 16:00S 28°48' E 032°03'0 0.0
2017-Apr-09 15:30S 28°48' E 032°03'0 0.0
2017-Apr-09 15:00S 28°48' E 032°03'0 0.0
2017-Apr-09 14:00S 28°48' E 032°03'0 0.0
2017-Apr-09 13:30S 28°48' E 032°03'0 0.0
2017-Apr-09 13:00S 28°48' E 032°03'0 0.0
2017-Apr-09 12:30S 28°48' E 032°03'0 0.0
2017-Apr-09 12:00S 28°48' E 032°03'0 0.0
2017-Apr-09 11:30S 28°48' E 032°03'0 0.9
2017-Apr-09 11:00S 28°48' E 032°03'4 7.2
2017-Apr-09 10:30S 28°49' E 032°07'4 7.1
2017-Apr-09 10:00S 28°51' E 032°10'3 7.0
2017-Apr-09 09:30S 28°54' E 032°13'1 2.6
2017-Apr-09 08:57S 28°55' E 032°14'0 0.1
2017-Apr-09 08:30S 28°55' E 032°14'0 0.0
2017-Apr-09 08:00S 28°55' E 032°14'0 0.0
2017-Apr-09 07:18S 28°55' E 032°14'0 0.1
2017-Apr-09 07:00S 28°55' E 032°14'0 0.0
2017-Apr-09 06:27S 28°55' E 032°14'0 0.5
2017-Apr-09 06:00S 28°55' E 032°14'1 2.9
2017-Apr-09 05:31S 28°54' E 032°15'4 8.1
2017-Apr-09 04:58S 28°51' E 032°19'  

Dump ship's entire track history